»·PEaware :: N6988X KSQL-O60

N6988X :: KSQL-O60

FLIGHT INFORMATION

Flight Status: Arrived
Operator: Privately registered:
United States
More flights under this callsign
Pilot: Lauren G. (5641)
Aircraft: CESSNA 172 SKYHAWK
(C172)
More flights by this aircraft type
Origin: KSQL San Carlos
United States
Destination: O60 Cloverdale Mun
United States
More flights between these airports :: More routes between these airports
Route:
File this flight plan on PilotEdge
Remarks:
Altitude:
(Current/Filed)
1,500ft
Speed:
(Current/Filed)
120kts
Departed: 10-Jun-17 10:15 AM
Arrived: 10-Jun-17 11:05 AM
Distance/Time
Traveled:
83nm/0:50
Distance/Time
To Go:
Arrived

Flight Plot

Page will automatically refresh every two minutes.

Flight plan parsing failed; only flown route is shown


Map Options




Map Legend


Flown Route
Filed Route
Departure Airport
Arrival Airport
Navaid (VOR, NDB)
Fix

Horizontal Profiles

Position Reports

Time Latitude Longitude Heading Altitude Ground
Speed
10-Jun-17 10:08 37.509719 -122.248934 321 8ft 0kts
10-Jun-17 10:09 37.509719 -122.248934 321 8ft 0kts
10-Jun-17 10:10 37.509719 -122.248934 321 8ft 0kts
10-Jun-17 10:11 37.509719 -122.248934 321 8ft 0kts
10-Jun-17 10:12 37.509719 -122.248934 321 8ft 0kts
10-Jun-17 10:13 37.509719 -122.248934 321 8ft 0kts
10-Jun-17 10:14 37.509515 -122.247704 145 8ft 11kts
10-Jun-17 10:15 37.508885 -122.246771 63 10ft 1kts
10-Jun-17 10:16 37.509516 -122.246876 313 8ft 22kts
10-Jun-17 10:17 37.515132 -122.264387 254 864ft 72kts
10-Jun-17 10:18 37.508502 -122.290155 263 1761ft 82kts
10-Jun-17 10:19 37.508781 -122.322512 271 2095ft 117kts
10-Jun-17 10:20 37.504308 -122.362935 264 2069ft 116kts
10-Jun-17 10:21 37.499654 -122.400932 264 2146ft 119kts
10-Jun-17 10:22 37.494239 -122.445184 263 2032ft 128kts
10-Jun-17 10:23 37.489852 -122.489610 265 2032ft 127kts
10-Jun-17 10:24 37.495516 -122.532040 304 2031ft 126kts
10-Jun-17 10:25 37.518861 -122.563966 322 2049ft 123kts
10-Jun-17 10:26 37.548214 -122.586073 335 1975ft 127kts
10-Jun-17 10:27 37.581166 -122.584994 19 1995ft 127kts
10-Jun-17 10:28 37.613345 -122.567576 13 1973ft 128kts
10-Jun-17 10:29 37.649193 -122.554192 5 1620ft 132kts
10-Jun-17 10:30 37.683629 -122.542319 7 1637ft 128kts
10-Jun-17 10:31 37.716954 -122.529749 8 1632ft 125kts
10-Jun-17 10:32 37.750491 -122.523276 0 1626ft 122kts
10-Jun-17 10:33 37.784361 -122.519065 351 1555ft 128kts
10-Jun-17 10:34 37.819195 -122.517469 354 1539ft 123kts
10-Jun-17 10:35 37.853513 -122.515064 0 1542ft 123kts
10-Jun-17 10:36 37.887267 -122.511737 0 1790ft 114kts
10-Jun-17 10:37 37.920157 -122.508051 357 1982ft 126kts
10-Jun-17 10:38 37.954729 -122.510339 346 1975ft 119kts
10-Jun-17 10:39 37.986513 -122.518100 340 1979ft 114kts
10-Jun-17 10:40 38.017067 -122.528559 340 1983ft 115kts
10-Jun-17 10:41 38.050996 -122.533146 349 1981ft 126kts
10-Jun-17 10:42 38.084803 -122.543932 340 1981ft 124kts
10-Jun-17 10:43 38.115607 -122.554090 343 1981ft 125kts
10-Jun-17 10:44 38.145182 -122.565521 336 1979ft 123kts
10-Jun-17 10:45 38.175996 -122.581614 332 1982ft 123kts
10-Jun-17 10:46 38.206627 -122.597786 331 1981ft 127kts
10-Jun-17 10:47 38.237382 -122.618650 322 1979ft 124kts
10-Jun-17 10:48 38.263451 -122.646468 312 1980ft 121kts
10-Jun-17 10:49 38.289260 -122.674072 319 1981ft 123kts
10-Jun-17 10:50 38.320213 -122.693244 334 1982ft 125kts
10-Jun-17 10:51 38.355422 -122.698158 351 1982ft 128kts
10-Jun-17 10:52 38.390842 -122.701176 347 1983ft 127kts
10-Jun-17 10:53 38.425299 -122.710552 342 1956ft 127kts
10-Jun-17 10:54 38.456385 -122.730325 324 1955ft 124kts
10-Jun-17 10:55 38.485052 -122.755226 323 1955ft 124kts
10-Jun-17 10:56 38.513358 -122.780771 323 1955ft 124kts
10-Jun-17 10:57 38.541637 -122.806293 323 1955ft 124kts
10-Jun-17 10:58 38.570103 -122.831987 324 1955ft 127kts
10-Jun-17 10:59 38.603805 -122.846810 345 1955ft 129kts
10-Jun-17 11:00 38.638362 -122.857194 343 1954ft 127kts
10-Jun-17 11:01 38.669140 -122.873887 323 1959ft 122kts
10-Jun-17 11:02 38.691032 -122.903658 307 1671ft 111kts
10-Jun-17 11:03 38.711608 -122.932578 317 1467ft 108kts
10-Jun-17 11:04 38.732757 -122.956861 314 1169ft 89kts
10-Jun-17 11:05 38.750777 -122.975465 328 1014ft 74kts
10-Jun-17 11:06 38.767994 -122.987107 329 460ft 66kts
10-Jun-17 11:07 38.777325 -122.993725 221 273ft 7kts
10-Jun-17 11:08 38.774600 -122.992332 112 273ft 0kts

Navigation Log

Ident Type
Flight plan parsing failed, navigation log unavailable